Skip Navigation

Christman Field Latest Observations

Switch to metric unitsOther observation timesWeekly graphs

Date Time
MST
Temp
°F
RH
%
DewPt
°F
Wind
mph
Dir
°
Gust
mph
Dir
°
Press
in Hg
Solar
W/m^2
Prec
in
2019-06-19 23:55 61.8 58.4 47.1 7.6 340 9.4 350 24.676 0.0 0.00
2019-06-19 23:50 62.5 54.8 46.0 7.1 336 9.7 339 24.668 0.0 0.00
2019-06-19 23:45 63.6 52.5 46.0 5.1 332 8.5 329 24.665 0.0 0.00
2019-06-19 23:40 65.1 47.1 44.5 3.7 338 5.9 338 24.659 0.0 0.00
2019-06-19 23:35 65.9 44.6 43.8 1.5 349 3.2 301 24.660 0.0 0.00
2019-06-19 23:30 64.4 44.7 42.4 4.8 301 9.1 252 24.660 0.0 0.00
2019-06-19 23:25 64.9 51.1 46.4 5.8 244 7.4 34 24.665 0.0 0.00
2019-06-19 23:20 65.0 46.6 44.0 6.2 28 7.8 41 24.663 0.0 0.00
2019-06-19 23:15 63.4 47.2 43.0 1.7 16 4.3 16 24.671 0.0 0.00
2019-06-19 23:10 63.1 50.3 44.3 4.1 98 6.4 69 24.669 0.0 0.00
2019-06-19 23:05 60.8 52.3 43.2 7.4 196 11.5 245 24.667 0.0 0.00
2019-06-19 23:00 60.7 61.6 47.4 4.3 236 7.7 343 24.659 0.0 0.00
2019-06-19 22:55 61.0 58.7 46.5 7.6 348 9.1 346 24.658 0.0 0.00
2019-06-19 22:50 61.7 55.0 45.4 10.4 333 13.3 347 24.657 0.0 0.00
2019-06-19 22:45 63.2 55.0 46.7 11.5 344 17.2 5 24.655 0.0 0.00
2019-06-19 22:40 61.9 54.7 45.4 9.0 295 11.8 305 24.650 0.0 0.00
2019-06-19 22:35 63.0 57.3 47.7 4.9 256 8.7 271 24.644 0.0 0.00
2019-06-19 22:30 64.6 53.3 47.3 6.1 272 7.8 272 24.641 0.0 0.00
2019-06-19 22:25 62.9 52.2 45.2 4.7 181 6.4 237 24.643 0.0 0.00
2019-06-19 22:20 62.6 55.2 46.4 5.7 224 8.8 193 24.640 0.0 0.00
2019-06-19 22:15 60.4 58.6 45.8 6.3 204 9.3 204 24.640 0.0 0.00
2019-06-19 22:10 60.1 60.2 46.3 6.5 233 8.2 207 24.639 0.0 0.00
2019-06-19 22:05 59.9 64.5 47.9 3.2 208 6.4 298 24.638 0.0 0.00
2019-06-19 22:00 58.5 64.4 46.6 1.5 220 3.9 225 24.639 0.0 0.00
2019-06-19 21:55 57.3 70.5 47.7 6.3 279 8.6 301 24.642 0.0 0.00
2019-06-19 21:50 58.4 70.2 48.7 2.5 292 6.6 298 24.636 0.0 0.00
2019-06-19 21:45 59.3 65.5 47.7 1.9 299 7.7 301 24.636 0.0 0.00
2019-06-19 21:40 59.7 64.4 47.7 2.5 270 5.0 277 24.637 0.0 0.00
2019-06-19 21:35 60.2 62.2 47.2 2.4 274 5.8 283 24.635 0.0 0.00
2019-06-19 21:30 62.7 61.3 49.2 3.3 175 4.6 208 24.634 0.1 0.00